sensor_id;sensor_type;location;lat;lon;timestamp;pressure;altitude;pressure_sealevel;temperature;humidity
21111;BME280;10713;51.912;4.494;2024-01-30T00:02:14;102565.94;;;9.53;100.00
21111;BME280;10713;51.912;4.494;2024-01-30T00:04:40;102554.50;;;9.54;100.00
21111;BME280;10713;51.912;4.494;2024-01-30T00:07:05;102555.38;;;9.55;100.00
21111;BME280;10713;51.912;4.494;2024-01-30T00:09:30;102554.50;;;9.59;100.00
21111;BME280;10713;51.912;4.494;2024-01-30T00:11:56;102552.66;;;9.64;100.00
21111;BME280;10713;51.912;4.494;2024-01-30T00:14:21;102550.06;;;9.62;100.00
21111;BME280;10713;51.912;4.494;2024-01-30T00:16:47;102555.31;;;9.61;100.00
21111;BME280;10713;51.912;4.494;2024-01-30T00:19:12;102561.47;;;9.63;100.00
21111;BME280;10713;51.912;4.494;2024-01-30T00:21:38;102550.91;;;9.66;100.00
21111;BME280;10713;51.912;4.494;2024-01-30T00:24:03;102541.25;;;9.63;100.00
21111;BME280;10713;51.912;4.494;2024-01-30T00:26:29;102525.47;;;9.62;100.00
21111;BME280;10713;51.912;4.494;2024-01-30T00:28:54;102514.00;;;9.64;100.00
21111;BME280;10713;51.912;4.494;2024-01-30T00:31:20;102528.94;;;9.65;100.00
21111;BME280;10713;51.912;4.494;2024-01-30T00:33:48;102518.38;;;9.65;100.00
21111;BME280;10713;51.912;4.494;2024-01-30T00:36:13;102514.91;;;9.62;100.00
21111;BME280;10713;51.912;4.494;2024-01-30T00:38:38;102514.00;;;9.64;100.00
21111;BME280;10713;51.912;4.494;2024-01-30T00:41:08;102515.75;;;9.64;100.00
21111;BME280;10713;51.912;4.494;2024-01-30T00:43:33;102525.44;;;9.65;100.00
21111;BME280;10713;51.912;4.494;2024-01-30T00:45:59;102527.19;;;9.63;100.00
21111;BME280;10713;51.912;4.494;2024-01-30T00:48:24;102541.28;;;9.62;100.00
21111;BME280;10713;51.912;4.494;2024-01-30T00:50:50;102534.22;;;9.61;100.00
21111;BME280;10713;51.912;4.494;2024-01-30T00:53:15;102536.00;;;9.62;100.00
21111;BME280;10713;51.912;4.494;2024-01-30T00:55:41;102533.34;;;9.63;100.00
21111;BME280;10713;51.912;4.494;2024-01-30T00:58:06;102525.47;;;9.62;100.00
21111;BME280;10713;51.912;4.494;2024-01-30T01:00:32;102528.06;;;9.65;100.00
21111;BME280;10713;51.912;4.494;2024-01-30T01:02:58;102526.28;;;9.64;100.00
21111;BME280;10713;51.912;4.494;2024-01-30T01:05:24;102523.69;;;9.61;100.00
21111;BME280;10713;51.912;4.494;2024-01-30T01:07:49;102521.94;;;9.60;100.00
21111;BME280;10713;51.912;4.494;2024-01-30T01:10:16;102522.84;;;9.57;100.00
21111;BME280;10713;51.912;4.494;2024-01-30T01:12:42;102509.69;;;9.54;100.00
21111;BME280;10713;51.912;4.494;2024-01-30T01:15:08;102517.59;;;9.54;100.00
21111;BME280;10713;51.912;4.494;2024-01-30T01:17:38;102526.41;;;9.53;100.00
21111;BME280;10713;51.912;4.494;2024-01-30T01:20:05;102530.81;;;9.51;100.00
21111;BME280;10713;51.912;4.494;2024-01-30T01:22:31;102520.25;;;9.50;100.00
21111;BME280;10713;51.912;4.494;2024-01-30T01:24:57;102508.84;;;9.51;100.00
21111;BME280;10713;51.912;4.494;2024-01-30T01:27:22;102507.97;;;9.48;100.00
21111;BME280;10713;51.912;4.494;2024-01-30T01:29:48;102515.03;;;9.48;100.00
21111;BME280;10713;51.912;4.494;2024-01-30T01:32:13;102519.44;;;9.47;100.00
21111;BME280;10713;51.912;4.494;2024-01-30T01:34:38;102508.91;;;9.44;100.00
21111;BME280;10713;51.912;4.494;2024-01-30T01:37:04;102495.75;;;9.41;100.00
21111;BME280;10713;51.912;4.494;2024-01-30T01:39:29;102500.09;;;9.44;100.00
21111;BME280;10713;51.912;4.494;2024-01-30T01:41:55;102501.00;;;9.43;100.00
21111;BME280;10713;51.912;4.494;2024-01-30T01:44:20;102521.19;;;9.44;100.00
21111;BME280;10713;51.912;4.494;2024-01-30T01:46:45;102522.09;;;9.44;100.00
21111;BME280;10713;51.912;4.494;2024-01-30T01:49:11;102512.34;;;9.50;100.00
21111;BME280;10713;51.912;4.494;2024-01-30T01:51:37;102516.72;;;9.54;100.00
21111;BME280;10713;51.912;4.494;2024-01-30T01:54:04;102507.06;;;9.54;100.00
21111;BME280;10713;51.912;4.494;2024-01-30T01:56:33;102511.41;;;9.58;100.00
21111;BME280;10713;51.912;4.494;2024-01-30T01:59:06;102500.00;;;9.59;100.00
21111;BME280;10713;51.912;4.494;2024-01-30T02:01:38;102498.19;;;9.61;100.00
21111;BME280;10713;51.912;4.494;2024-01-30T02:04:04;102500.81;;;9.63;100.00
21111;BME280;10713;51.912;4.494;2024-01-30T02:06:29;102495.56;;;9.64;100.00
21111;BME280;10713;51.912;4.494;2024-01-30T02:08:55;102492.03;;;9.64;100.00
21111;BME280;10713;51.912;4.494;2024-01-30T02:11:22;102481.47;;;9.64;100.00
21111;BME280;10713;51.912;4.494;2024-01-30T02:13:48;102490.28;;;9.64;100.00
21111;BME280;10713;51.912;4.494;2024-01-30T02:16:13;102483.25;;;9.65;100.00
21111;BME280;10713;51.912;4.494;2024-01-30T02:18:39;102488.50;;;9.65;100.00
21111;BME280;10713;51.912;4.494;2024-01-30T02:21:08;102491.16;;;9.63;100.00
21111;BME280;10713;51.912;4.494;2024-01-30T02:23:34;102489.38;;;9.64;100.00
21111;BME280;10713;51.912;4.494;2024-01-30T02:26:00;102487.63;;;9.66;100.00
21111;BME280;10713;51.912;4.494;2024-01-30T02:28:25;102492.91;;;9.64;100.00
21111;BME280;10713;51.912;4.494;2024-01-30T02:30:51;102490.25;;;9.66;100.00
21111;BME280;10713;51.912;4.494;2024-01-30T02:33:16;102495.53;;;9.66;100.00
21111;BME280;10713;51.912;4.494;2024-01-30T02:35:42;102499.03;;;9.68;100.00
21111;BME280;10713;51.912;4.494;2024-01-30T02:38:07;102494.63;;;9.67;100.00
21111;BME280;10713;51.912;4.494;2024-01-30T02:40:33;102488.47;;;9.68;100.00
21111;BME280;10713;51.912;4.494;2024-01-30T02:42:59;102491.09;;;9.69;100.00
21111;BME280;10713;51.912;4.494;2024-01-30T02:45:25;102478.75;;;9.75;100.00
21111;BME280;10713;51.912;4.494;2024-01-30T02:47:50;102480.47;;;9.79;100.00
21111;BME280;10713;51.912;4.494;2024-01-30T02:50:16;102476.06;;;9.79;100.00
21111;BME280;10713;51.912;4.494;2024-01-30T02:52:41;102475.19;;;9.79;100.00
21111;BME280;10713;51.912;4.494;2024-01-30T02:55:09;102464.66;;;9.79;100.00
21111;BME280;10713;51.912;4.494;2024-01-30T02:57:34;102469.03;;;9.80;100.00
21111;BME280;10713;51.912;4.494;2024-01-30T03:00:00;102458.47;;;9.80;100.00
21111;BME280;10713;51.912;4.494;2024-01-30T03:02:25;102458.50;;;9.77;100.00
21111;BME280;10713;51.912;4.494;2024-01-30T03:04:50;102458.47;;;9.80;100.00
21111;BME280;10713;51.912;4.494;2024-01-30T03:07:16;102461.09;;;9.81;100.00
21111;BME280;10713;51.912;4.494;2024-01-30T03:09:42;102467.22;;;9.83;100.00
21111;BME280;10713;51.912;4.494;2024-01-30T03:12:10;102465.50;;;9.82;100.00
21111;BME280;10713;51.912;4.494;2024-01-30T03:14:36;102467.22;;;9.83;100.00
21111;BME280;10713;51.912;4.494;2024-01-30T03:17:01;102464.63;;;9.82;100.00
21111;BME280;10713;51.912;4.494;2024-01-30T03:19:26;102462.84;;;9.81;100.00
21111;BME280;10713;51.912;4.494;2024-01-30T03:21:52;102461.97;;;9.80;100.00
21111;BME280;10713;51.912;4.494;2024-01-30T03:24:17;102466.41;;;9.77;100.00
21111;BME280;10713;51.912;4.494;2024-01-30T03:26:43;102458.50;;;9.75;100.00
21111;BME280;10713;51.912;4.494;2024-01-30T03:29:09;102469.03;;;9.78;100.00
21111;BME280;10713;51.912;4.494;2024-01-30T03:31:34;102466.38;;;9.80;100.00
21111;BME280;10713;51.912;4.494;2024-01-30T03:34:00;102476.91;;;9.83;100.00
21111;BME280;10713;51.912;4.494;2024-01-30T03:36:26;102464.56;;;9.86;100.00
21111;BME280;10713;51.912;4.494;2024-01-30T03:38:51;102467.19;;;9.86;100.00
21111;BME280;10713;51.912;4.494;2024-01-30T03:41:16;102470.72;;;9.85;100.00
21111;BME280;10713;51.912;4.494;2024-01-30T03:43:42;102463.72;;;9.84;100.00
21111;BME280;10713;51.912;4.494;2024-01-30T03:46:07;102474.22;;;9.87;100.00
21111;BME280;10713;51.912;4.494;2024-01-30T03:48:33;102463.72;;;9.84;100.00
21111;BME280;10713;51.912;4.494;2024-01-30T03:50:58;102460.16;;;9.88;100.00
21111;BME280;10713;51.912;4.494;2024-01-30T03:53:23;102461.88;;;9.91;100.00
21111;BME280;10713;51.912;4.494;2024-01-30T03:55:49;102464.47;;;9.92;100.00
21111;BME280;10713;51.912;4.494;2024-01-30T03:58:14;102446.00;;;9.92;100.00
21111;BME280;10713;51.912;4.494;2024-01-30T04:00:40;102460.97;;;9.93;100.00
21111;BME280;10713;51.912;4.494;2024-01-30T04:03:06;102446.00;;;9.92;100.00
21111;BME280;10713;51.912;4.494;2024-01-30T04:05:32;102448.66;;;9.92;100.00
21111;BME280;10713;51.912;4.494;2024-01-30T04:07:58;102454.84;;;9.93;100.00
21111;BME280;10713;51.912;4.494;2024-01-30T04:10:24;102450.44;;;9.93;100.00
21111;BME280;10713;51.912;4.494;2024-01-30T04:12:50;102453.94;;;9.92;100.00
21111;BME280;10713;51.912;4.494;2024-01-30T04:15:16;102451.28;;;9.92;100.00
21111;BME280;10713;51.912;4.494;2024-01-30T04:17:42;102460.09;;;9.91;100.00
21111;BME280;10713;51.912;4.494;2024-01-30T04:20:07;102452.19;;;9.93;100.00
21111;BME280;10713;51.912;4.494;2024-01-30T04:22:34;102452.19;;;9.93;100.00
21111;BME280;10713;51.912;4.494;2024-01-30T04:24:59;102447.78;;;9.93;100.00
21111;BME280;10713;51.912;4.494;2024-01-30T04:27:25;102448.63;;;9.97;100.00
21111;BME280;10713;51.912;4.494;2024-01-30T04:29:51;102437.19;;;9.97;100.00
21111;BME280;10713;51.912;4.494;2024-01-30T04:32:16;102432.78;;;9.97;100.00
21111;BME280;10713;51.912;4.494;2024-01-30T04:34:42;102431.03;;;9.98;100.00
21111;BME280;10713;51.912;4.494;2024-01-30T04:37:07;102430.16;;;9.96;100.00
21111;BME280;10713;51.912;4.494;2024-01-30T04:39:33;102436.34;;;9.95;100.00
21111;BME280;10713;51.912;4.494;2024-01-30T04:41:58;102431.09;;;9.93;100.00
21111;BME280;10713;51.912;4.494;2024-01-30T04:44:24;102435.47;;;9.92;100.00
21111;BME280;10713;51.912;4.494;2024-01-30T04:46:50;102431.13;;;9.88;100.00
21111;BME280;10713;51.912;4.494;2024-01-30T04:49:15;102425.84;;;9.87;100.00
21111;BME280;10713;51.912;4.494;2024-01-30T04:51:40;102432.94;;;9.85;100.00
21111;BME280;10713;51.912;4.494;2024-01-30T04:54:06;102432.94;;;9.85;100.00
21111;BME280;10713;51.912;4.494;2024-01-30T04:56:31;102434.66;;;9.87;100.00
21111;BME280;10713;51.912;4.494;2024-01-30T04:58:56;102434.66;;;9.86;100.00
21111;BME280;10713;51.912;4.494;2024-01-30T05:01:22;102442.63;;;9.84;100.00
21111;BME280;10713;51.912;4.494;2024-01-30T05:03:47;102439.06;;;9.85;100.00
21111;BME280;10713;51.912;4.494;2024-01-30T05:06:12;102439.06;;;9.85;100.00
21111;BME280;10713;51.912;4.494;2024-01-30T05:08:38;102432.06;;;9.84;100.00
21111;BME280;10713;51.912;4.494;2024-01-30T05:11:05;102440.84;;;9.85;100.00
21111;BME280;10713;51.912;4.494;2024-01-30T05:13:31;102439.06;;;9.85;100.00
21111;BME280;10713;51.912;4.494;2024-01-30T05:15:56;102434.72;;;9.81;100.00
21111;BME280;10713;51.912;4.494;2024-01-30T05:18:21;102434.66;;;9.86;100.00
21111;BME280;10713;51.912;4.494;2024-01-30T05:20:47;102430.28;;;9.83;100.00
21111;BME280;10713;51.912;4.494;2024-01-30T05:23:12;102432.94;;;9.85;100.00
21111;BME280;10713;51.912;4.494;2024-01-30T05:25:37;102439.06;;;9.84;100.00
21111;BME280;10713;51.912;4.494;2024-01-30T05:28:03;102432.97;;;9.82;100.00
21111;BME280;10713;51.912;4.494;2024-01-30T05:30:28;102437.38;;;9.80;100.00
21111;BME280;10713;51.912;4.494;2024-01-30T05:32:54;102441.78;;;9.78;100.00
21111;BME280;10713;51.912;4.494;2024-01-30T05:35:19;102439.16;;;9.79;100.00
21111;BME280;10713;51.912;4.494;2024-01-30T05:37:48;102428.63;;;9.76;100.00
21111;BME280;10713;51.912;4.494;2024-01-30T05:40:13;102433.91;;;9.76;100.00
21111;BME280;10713;51.912;4.494;2024-01-30T05:42:39;102429.50;;;9.75;100.00
21111;BME280;10713;51.912;4.494;2024-01-30T05:45:05;102430.41;;;9.74;100.00
21111;BME280;10713;51.912;4.494;2024-01-30T05:47:30;102443.56;;;9.76;100.00
21111;BME280;10713;51.912;4.494;2024-01-30T05:49:56;102447.06;;;9.78;100.00
21111;BME280;10713;51.912;4.494;2024-01-30T05:52:21;102448.78;;;9.80;100.00
21111;BME280;10713;51.912;4.494;2024-01-30T05:54:46;102454.91;;;9.85;100.00
21111;BME280;10713;51.912;4.494;2024-01-30T05:57:12;102457.50;;;9.88;100.00
21111;BME280;10713;51.912;4.494;2024-01-30T05:59:37;102445.22;;;9.87;100.00
21111;BME280;10713;51.912;4.494;2024-01-30T06:02:03;102449.59;;;9.88;100.00
21111;BME280;10713;51.912;4.494;2024-01-30T06:04:28;102449.56;;;9.91;100.00
21111;BME280;10713;51.912;4.494;2024-01-30T06:06:53;102456.53;;;9.96;100.00
21111;BME280;10713;51.912;4.494;2024-01-30T06:09:19;102457.44;;;9.96;100.00
21111;BME280;10713;51.912;4.494;2024-01-30T06:11:44;102449.50;;;9.98;100.00
21111;BME280;10713;51.912;4.494;2024-01-30T06:14:10;102455.63;;;9.98;100.00
21111;BME280;10713;51.912;4.494;2024-01-30T06:16:35;102448.63;;;9.99;100.00
21111;BME280;10713;51.912;4.494;2024-01-30T06:19:00;102456.50;;;10.00;100.00
21111;BME280;10713;51.912;4.494;2024-01-30T06:21:26;102453.84;;;10.02;100.00
21111;BME280;10713;51.912;4.494;2024-01-30T06:23:51;102445.03;;;10.01;100.00
21111;BME280;10713;51.912;4.494;2024-01-30T06:26:16;102450.31;;;10.01;100.00
21111;BME280;10713;51.912;4.494;2024-01-30T06:28:42;102453.84;;;10.00;100.00
21111;BME280;10713;51.912;4.494;2024-01-30T06:31:07;102456.50;;;10.02;100.00
21111;BME280;10713;51.912;4.494;2024-01-30T06:33:32;102444.16;;;10.01;100.00
21111;BME280;10713;51.912;4.494;2024-01-30T06:35:58;102453.00;;;10.00;100.00
21111;BME280;10713;51.912;4.494;2024-01-30T06:38:23;102460.00;;;10.01;100.00
21111;BME280;10713;51.912;4.494;2024-01-30T06:40:49;102447.69;;;10.01;100.00
21111;BME280;10713;51.912;4.494;2024-01-30T06:43:14;102459.13;;;10.00;100.00
21111;BME280;10713;51.912;4.494;2024-01-30T06:45:40;102462.69;;;9.99;100.00
21111;BME280;10713;51.912;4.494;2024-01-30T06:48:05;102466.19;;;9.98;100.00
21111;BME280;10713;51.912;4.494;2024-01-30T06:50:31;102460.91;;;10.00;100.00
21111;BME280;10713;51.912;4.494;2024-01-30T06:52:56;102459.09;;;10.03;100.00
21111;BME280;10713;51.912;4.494;2024-01-30T06:55:22;102466.97;;;10.06;100.00
21111;BME280;10713;51.912;4.494;2024-01-30T06:57:47;102468.72;;;10.09;100.00
21111;BME280;10713;51.912;4.494;2024-01-30T07:00:13;102463.44;;;10.09;100.00
21111;BME280;10713;51.912;4.494;2024-01-30T07:02:39;102458.13;;;10.13;100.00
21111;BME280;10713;51.912;4.494;2024-01-30T07:05:04;102459.84;;;10.16;100.00
21111;BME280;10713;51.912;4.494;2024-01-30T07:07:30;102462.44;;;10.18;100.00
21111;BME280;10713;51.912;4.494;2024-01-30T07:09:55;102475.59;;;10.22;100.00
21111;BME280;10713;51.912;4.494;2024-01-30T07:12:22;102470.28;;;10.25;100.00
21111;BME280;10713;51.912;4.494;2024-01-30T07:14:49;102472.88;;;10.30;100.00
21111;BME280;10713;51.912;4.494;2024-01-30T07:17:15;102474.66;;;10.31;100.00
21111;BME280;10713;51.912;4.494;2024-01-30T07:19:41;102474.56;;;10.35;100.00
21111;BME280;10713;51.912;4.494;2024-01-30T07:22:06;102478.13;;;10.34;100.00
21111;BME280;10713;51.912;4.494;2024-01-30T07:24:31;102478.94;;;10.40;100.00
21111;BME280;10713;51.912;4.494;2024-01-30T07:26:56;102474.50;;;10.45;100.00
21111;BME280;10713;51.912;4.494;2024-01-30T07:29:22;102478.84;;;10.47;100.00
21111;BME280;10713;51.912;4.494;2024-01-30T07:31:47;102497.25;;;10.52;100.00
21111;BME280;10713;51.912;4.494;2024-01-30T07:34:13;102491.97;;;10.53;100.00
21111;BME280;10713;51.912;4.494;2024-01-30T07:36:38;102498.13;;;10.54;100.00
21111;BME280;10713;51.912;4.494;2024-01-30T07:39:04;102495.44;;;10.55;100.00
21111;BME280;10713;51.912;4.494;2024-01-30T07:41:29;102496.31;;;10.57;100.00
21111;BME280;10713;51.912;4.494;2024-01-30T07:43:54;102488.38;;;10.59;100.00
21111;BME280;10713;51.912;4.494;2024-01-30T07:46:20;102489.22;;;10.63;100.00
21111;BME280;10713;51.912;4.494;2024-01-30T07:48:45;102502.34;;;10.67;100.00
21111;BME280;10713;51.912;4.494;2024-01-30T07:51:11;102504.16;;;10.65;100.00
21111;BME280;10713;51.912;4.494;2024-01-30T07:53:36;102494.41;;;10.67;100.00
21111;BME280;10713;51.912;4.494;2024-01-30T07:56:01;102500.56;;;10.69;100.00
21111;BME280;10713;51.912;4.494;2024-01-30T07:58:27;102501.41;;;10.71;100.00
21111;BME280;10713;51.912;4.494;2024-01-30T08:00:53;102502.28;;;10.72;100.00
21111;BME280;10713;51.912;4.494;2024-01-30T08:03:18;102517.22;;;10.74;100.00
21111;BME280;10713;51.912;4.494;2024-01-30T08:05:44;102519.88;;;10.74;100.00
21111;BME280;10713;51.912;4.494;2024-01-30T08:08:09;102527.78;;;10.74;100.00
21111;BME280;10713;51.912;4.494;2024-01-30T08:10:35;102519.00;;;10.74;100.00
21111;BME280;10713;51.912;4.494;2024-01-30T08:13:01;102513.63;;;10.78;100.00
21111;BME280;10713;51.912;4.494;2024-01-30T08:15:27;102523.31;;;10.79;100.00
21111;BME280;10713;51.912;4.494;2024-01-30T08:17:52;102535.63;;;10.80;100.00
21111;BME280;10713;51.912;4.494;2024-01-30T08:20:23;102532.94;;;10.83;100.00
21111;BME280;10713;51.912;4.494;2024-01-30T08:22:48;102527.66;;;10.83;100.00
21111;BME280;10713;51.912;4.494;2024-01-30T08:25:14;102547.94;;;10.83;100.00
21111;BME280;10713;51.912;4.494;2024-01-30T08:27:39;102547.94;;;10.83;100.00
21111;BME280;10713;51.912;4.494;2024-01-30T08:30:06;102546.16;;;10.83;100.00
21111;BME280;10713;51.912;4.494;2024-01-30T08:32:31;102533.81;;;10.86;100.00
21111;BME280;10713;51.912;4.494;2024-01-30T08:34:57;102535.53;;;10.88;100.00
21111;BME280;10713;51.912;4.494;2024-01-30T08:37:23;102528.47;;;10.89;100.00
21111;BME280;10713;51.912;4.494;2024-01-30T08:39:48;102535.53;;;10.88;100.00
21111;BME280;10713;51.912;4.494;2024-01-30T08:42:14;102538.09;;;10.93;100.00
21111;BME280;10713;51.912;4.494;2024-01-30T08:44:39;102529.25;;;10.95;100.00
21111;BME280;10713;51.912;4.494;2024-01-30T08:47:05;102530.16;;;10.94;100.00
21111;BME280;10713;51.912;4.494;2024-01-30T08:49:31;102531.91;;;10.95;100.00
21111;BME280;10713;51.912;4.494;2024-01-30T08:51:56;102531.03;;;10.95;100.00
21111;BME280;10713;51.912;4.494;2024-01-30T08:54:22;102542.47;;;10.95;100.00
21111;BME280;10713;51.912;4.494;2024-01-30T08:56:48;102534.50;;;10.98;100.00
21111;BME280;10713;51.912;4.494;2024-01-30T08:59:13;102544.16;;;11.02;100.00
21111;BME280;10713;51.912;4.494;2024-01-30T09:01:38;102538.81;;;11.04;100.00
21111;BME280;10713;51.912;4.494;2024-01-30T09:04:04;102541.47;;;11.04;100.00
21111;BME280;10713;51.912;4.494;2024-01-30T09:06:29;102544.16;;;11.02;100.00
21111;BME280;10713;51.912;4.494;2024-01-30T09:08:55;102550.31;;;11.03;100.00
21111;BME280;10713;51.912;4.494;2024-01-30T09:11:20;102547.59;;;11.08;100.00
21111;BME280;10713;51.912;4.494;2024-01-30T09:13:45;102560.72;;;11.12;100.00
21111;BME280;10713;51.912;4.494;2024-01-30T09:16:11;102551.06;;;11.11;100.00
21111;BME280;10713;51.912;4.494;2024-01-30T09:18:36;102558.09;;;11.14;100.00
21111;BME280;10713;51.912;4.494;2024-01-30T09:21:02;102560.69;;;11.17;100.00
21111;BME280;10713;51.912;4.494;2024-01-30T09:23:27;102566.78;;;11.20;100.00
21111;BME280;10713;51.912;4.494;2024-01-30T09:25:53;102570.31;;;11.21;100.00
21111;BME280;10713;51.912;4.494;2024-01-30T09:28:18;102565.97;;;11.17;100.00
21111;BME280;10713;51.912;4.494;2024-01-30T09:30:44;102563.22;;;11.23;100.00
21111;BME280;10713;51.912;4.494;2024-01-30T09:33:09;102564.97;;;11.25;100.00
21111;BME280;10713;51.912;4.494;2024-01-30T09:35:36;102571.09;;;11.27;100.00
21111;BME280;10713;51.912;4.494;2024-01-30T09:38:01;102580.81;;;11.25;100.00
21111;BME280;10713;51.912;4.494;2024-01-30T09:40:27;102579.09;;;11.21;100.00
21111;BME280;10713;51.912;4.494;2024-01-30T09:42:54;102595.03;;;11.17;100.00
21111;BME280;10713;51.912;4.494;2024-01-30T09:45:20;102610.91;;;11.17;100.00
21111;BME280;10713;51.912;4.494;2024-01-30T09:47:48;102599.56;;;11.07;100.00
21111;BME280;10713;51.912;4.494;2024-01-30T09:50:15;102598.81;;;10.99;100.00
21111;BME280;10713;51.912;4.494;2024-01-30T09:52:40;102599.66;;;11.01;100.00
21111;BME280;10713;51.912;4.494;2024-01-30T09:55:06;102604.03;;;11.03;100.00
21111;BME280;10713;51.912;4.494;2024-01-30T09:57:32;102607.53;;;11.05;100.00
21111;BME280;10713;51.912;4.494;2024-01-30T09:59:57;102601.34;;;11.07;100.00
21111;BME280;10713;51.912;4.494;2024-01-30T10:02:23;102600.38;;;11.14;100.00
21111;BME280;10713;51.912;4.494;2024-01-30T10:04:49;102610.78;;;11.26;100.00
21111;BME280;10713;51.912;4.494;2024-01-30T10:07:15;102607.25;;;11.24;100.00
21111;BME280;10713;51.912;4.494;2024-01-30T10:09:41;102617.09;;;11.13;100.00
21111;BME280;10713;51.912;4.494;2024-01-30T10:12:07;102619.91;;;11.00;100.00
21111;BME280;10713;51.912;4.494;2024-01-30T10:14:33;102633.28;;;10.88;100.00
21111;BME280;10713;51.912;4.494;2024-01-30T10:17:01;102624.59;;;10.78;100.00
21111;BME280;10713;51.912;4.494;2024-01-30T10:19:26;102599.19;;;10.67;100.00
21111;BME280;10713;51.912;4.494;2024-01-30T10:21:52;102615.94;;;10.64;100.00
21111;BME280;10713;51.912;4.494;2024-01-30T10:24:18;102620.34;;;10.65;100.00
21111;BME280;10713;51.912;4.494;2024-01-30T10:26:44;102614.16;;;10.66;100.00
21111;BME280;10713;51.912;4.494;2024-01-30T10:29:09;102634.44;;;10.64;100.00
21111;BME280;10713;51.912;4.494;2024-01-30T10:31:34;102632.72;;;10.58;100.00
21111;BME280;10713;51.912;4.494;2024-01-30T10:34:00;102638.06;;;10.54;100.00
21111;BME280;10713;51.912;4.494;2024-01-30T10:36:28;102635.47;;;10.51;100.00
21111;BME280;10713;51.912;4.494;2024-01-30T10:38:55;102631.09;;;10.48;100.00
21111;BME280;10713;51.912;4.494;2024-01-30T10:41:26;102643.47;;;10.45;100.00
21111;BME280;10713;51.912;4.494;2024-01-30T10:44:02;102640.84;;;10.42;100.00
21111;BME280;10713;51.912;4.494;2024-01-30T10:46:33;102654.97;;;10.33;100.00
21111;BME280;10713;51.912;4.494;2024-01-30T10:49:00;102624.22;;;10.32;100.00
21111;BME280;10713;51.912;4.494;2024-01-30T10:51:27;102637.44;;;10.24;100.00
21111;BME280;10713;51.912;4.494;2024-01-30T10:53:53;102643.66;;;10.15;100.00
21111;BME280;10713;51.912;4.494;2024-01-30T10:56:22;102645.50;;;10.10;100.00
21111;BME280;10713;51.912;4.494;2024-01-30T10:58:51;102648.97;;;10.12;100.00
21111;BME280;10713;51.912;4.494;2024-01-30T11:01:19;102640.22;;;10.09;100.00
21111;BME280;10713;51.912;4.494;2024-01-30T11:03:45;102656.09;;;10.03;100.00
21111;BME280;10713;51.912;4.494;2024-01-30T11:06:11;102670.25;;;9.94;100.00
21111;BME280;10713;51.912;4.494;2024-01-30T11:08:43;102663.25;;;9.88;100.00
21111;BME280;10713;51.912;4.494;2024-01-30T11:11:09;102673.88;;;9.79;100.00
21111;BME280;10713;51.912;4.494;2024-01-30T11:13:35;102689.78;;;9.70;100.00
21111;BME280;10713;51.912;4.494;2024-01-30T11:16:04;102676.63;;;9.62;100.00
21111;BME280;10713;51.912;4.494;2024-01-30T11:18:31;102668.78;;;9.53;100.00
21111;BME280;10713;51.912;4.494;2024-01-30T11:21:00;102681.06;;;9.50;100.00
21111;BME280;10713;51.912;4.494;2024-01-30T11:23:29;102671.44;;;9.44;100.00
21111;BME280;10713;51.912;4.494;2024-01-30T11:25:56;102687.25;;;9.41;100.00
21111;BME280;10713;51.912;4.494;2024-01-30T11:28:21;102687.28;;;9.39;100.00
21111;BME280;10713;51.912;4.494;2024-01-30T11:30:47;102688.16;;;9.44;100.00
21111;BME280;10713;51.912;4.494;2024-01-30T11:33:29;102667.03;;;9.47;100.00
21111;BME280;10713;51.912;4.494;2024-01-30T11:35:57;102674.91;;;9.52;100.00
21111;BME280;10713;51.912;4.494;2024-01-30T11:38:23;102672.28;;;9.52;100.00
21111;BME280;10713;51.912;4.494;2024-01-30T11:40:51;102666.16;;;9.45;100.00
21111;BME280;10713;51.912;4.494;2024-01-30T11:43:18;102670.50;;;9.53;100.00
21111;BME280;10713;51.912;4.494;2024-01-30T11:45:44;102659.06;;;9.55;100.00
21111;BME280;10713;51.912;4.494;2024-01-30T11:48:11;102659.06;;;9.57;100.00
21111;BME280;10713;51.912;4.494;2024-01-30T11:50:37;102638.84;;;9.57;100.00
21111;BME280;10713;51.912;4.494;2024-01-30T11:53:04;102666.06;;;9.61;100.00
21111;BME280;10713;51.912;4.494;2024-01-30T11:55:30;102675.72;;;9.63;100.00
21111;BME280;10713;51.912;4.494;2024-01-30T11:57:56;102673.03;;;9.69;100.00
21111;BME280;10713;51.912;4.494;2024-01-30T12:00:22;102666.00;;;9.76;100.00
21111;BME280;10713;51.912;4.494;2024-01-30T12:02:51;102677.38;;;9.78;100.00
21111;BME280;10713;51.912;4.494;2024-01-30T12:05:21;102682.66;;;9.80;100.00
21111;BME280;10713;51.912;4.494;2024-01-30T12:07:46;102683.56;;;9.74;100.00
21111;BME280;10713;51.912;4.494;2024-01-30T12:10:15;102687.09;;;9.75;100.00
21111;BME280;10713;51.912;4.494;2024-01-30T12:12:47;102686.19;;;9.76;100.00
21111;BME280;10713;51.912;4.494;2024-01-30T12:15:13;102689.78;;;9.70;100.00
21111;BME280;10713;51.912;4.494;2024-01-30T12:17:39;102694.16;;;9.66;100.00
21111;BME280;10713;51.912;4.494;2024-01-30T12:20:06;102695.06;;;9.64;100.00
21111;BME280;10713;51.912;4.494;2024-01-30T12:22:43;102697.66;;;9.68;100.00
21111;BME280;10713;51.912;4.494;2024-01-30T12:25:16;102704.72;;;9.66;100.00
21111;BME280;10713;51.912;4.494;2024-01-30T12:27:43;102704.72;;;9.63;100.00
21111;BME280;10713;51.912;4.494;2024-01-30T12:30:10;102709.16;;;9.57;100.00
21111;BME280;10713;51.912;4.494;2024-01-30T12:32:36;102711.81;;;9.54;100.00
21111;BME280;10713;51.912;4.494;2024-01-30T12:35:03;102708.28;;;9.55;100.00
21111;BME280;10713;51.912;4.494;2024-01-30T12:37:29;102718.88;;;9.48;100.00
21111;BME280;10713;51.912;4.494;2024-01-30T12:39:56;102725.97;;;9.39;100.00